aviador You're here:

KGUS Decoded Metar

PERU in IN, USA
Report Time2018-02-19 11:48:00
UTC Time2018-02-19 12:00:20
Flight Rules vfr VFR
Wind220° at 11 kt
W.Decomp.*RWY 23: 10.9 kt HW 1.5 kt LCW
W.Rank220° ranks 5
Current wind is above 220° avg. (9.6)
Visibility9999 m
Phenomena:Light Rain
Clouds:N/A
CeilingNone
Temp08°C (ISA -5)
Dew Point08°C (100% RH)
AAT3.6°C
QNH1014 hPa
Density Alt279 ft
Elevation810 ft
Report Wrong Elevation
Raw Report
SPECI KGUS 191148Z AUTO 22011KT 8SM -RA M 08/08 A2994 RMK AO2 RAE27RAB48
SLP146 $=

Extra information for KGUS:More info

Metar Taf Metar & Taf Last 4 Metars F.Rules Stats Wind Profile Meteogram Temp Stats Airport Information Weather charts Add Link Nearby VenuesMetar ALERT Operation Metar Decoded Social comments

AIRNAV info for KGUS